Погода Староротовкана 2 недели

Ростовская область, Россия

21 мая-03 июня
  • 21мая
    Сегодня
    +10°
    +27°
    Практически безоблачно
    ВремяПогодаТемператураВлажностьДавлениеВетер, м/сВероятность осадков
    00:00Ясно и безоблачно+13°C77 %761 мм1.6 м/с2 %
    03:00Ясно и безоблачно+12°C79 %761 мм1.9 м/с2 %
    06:00Ясно и безоблачно+12°C77 %761 мм1.8 м/с2 %
    09:00Практически безоблачно+23°C47 %762 мм1.2 м/с2 %
    12:00Практически безоблачно+25°C37 %762 мм2.1 м/с2 %
    15:00Практически безоблачно+26°C35 %761 мм2.4 м/с2 %
    18:00Ясно и безоблачно+24°C34 %760 мм1.9 м/с2 %
    21:00Ясно и безоблачно+18°C61 %761 мм2.2 м/с2 %
  • 22мая
    Среда
    +11°
    +29°
    Ясно и безоблачно
    ВремяПогодаТемператураВлажностьДавлениеВетер, м/сВероятность осадков
    00:00Ясно и безоблачно+15°C66 %760 мм2.5 м/с2 %
    03:00Ясно и безоблачно+12°C71 %760 мм2.3 м/с2 %
    06:00Ясно и безоблачно+13°C62 %760 мм2.4 м/с2 %
    09:00Ясно и безоблачно+25°C35 %761 мм2.8 м/с2 %
    12:00Ясно и безоблачно+27°C21 %760 мм3.7 м/с2 %
    15:00Ясно и безоблачно+28°C21 %759 мм3.7 м/с2 %
    18:00Ясно и безоблачно+26°C23 %758 мм2.7 м/с2 %
    21:00Ясно и безоблачно+19°C30 %759 мм2.6 м/с2 %
  • 23мая
    Четверг
    +15°
    +30°
    Ясно и безоблачно
    ВремяПогодаТемператураВлажностьДавлениеВетер, м/сВероятность осадков
    00:00Ясно и безоблачно+15°C46 %758 мм2.5 м/с2 %
    03:00Ясно и безоблачно+13°C51 %758 мм1.9 м/с2 %
    06:00Ясно и безоблачно+14°C52 %759 мм2.6 м/с2 %
    09:00Ясно и безоблачно+24°C36 %759 мм3.2 м/с2 %
    12:00Ясно и безоблачно+28°C24 %759 мм5.4 м/с2 %
    15:00Ясно и безоблачно+29°C23 %758 мм5.2 м/с4 %
    18:00Практически безоблачно+27°C25 %758 мм5.1 м/с6 %
    21:00Ясно и безоблачно+20°C40 %759 мм5.7 м/с2 %
  • 24мая
    Пятница
    +11°
    +27°
    Ясно и безоблачно
    ВремяПогодаТемператураВлажностьДавлениеВетер, м/сВероятность осадков
    00:00Ясно и безоблачно+18°C57 %760 мм5.0 м/с2 %
    03:00Ясно и безоблачно+16°C64 %760 мм5.7 м/с2 %
    06:00Ясно и безоблачно+16°C55 %762 мм7.0 м/с2 %
    09:00Ясно и безоблачно+21°C38 %763 мм7.7 м/с2 %
    12:00Ясно и безоблачно+25°C31 %763 мм8.4 м/с2 %
    15:00Ясно и безоблачно+26°C28 %763 мм7.7 м/с6 %
    18:00Ясно и безоблачно+24°C22 %763 мм7.6 м/с2 %
    21:00Ясно и безоблачно+19°C24 %764 мм6.7 м/с2 %
  • 25мая
    Суббота
    +13°
    +25°
    Ясно и безоблачно
    ВремяПогодаТемператураВлажностьДавлениеВетер, м/сВероятность осадков
    00:00Ясно и безоблачно+16°C27 %765 мм6.6 м/с2 %
    03:00Ясно и безоблачно+13°C31 %765 мм6.4 м/с2 %
    06:00Ясно и безоблачно+13°C35 %766 мм6.6 м/с2 %
    09:00Ясно и безоблачно+19°C30 %766 мм7.3 м/с2 %
    12:00Ясно и безоблачно+23°C22 %765 мм7.8 м/с2 %
    15:00Ясно и безоблачно+25°C19 %764 мм8.1 м/с2 %
    18:00Ясно и безоблачно+23°C20 %763 мм7.7 м/с2 %
    21:00Пасмурно, сплошная облачность+17°C22 %763 мм5.8 м/с2 %
Мы используем cookies
Соглашаюсь